Time;durP1;ratioP1;P1;durP2;ratioP2;P2;SDS_P1;SDS_P2;PMS_P1;PMS_P2;Temp;Humidity;BMP_temperature;BMP_pressure;BME280_temperature;BME280_humidity;BME280_pressure;Samples;Min_cycle;Max_cycle;Signal;HPM_P1;HPM_P2
2022/05/26 00:00:22;;;;;;;7.27;2.67;;;;;14.80;101377.00;;;;9988454;29;20653;-78
2022/05/26 00:05:24;;;;;;;6.07;2.80;;;;;14.80;101378.00;;;;10033002;29;20209;-78
2022/05/26 00:10:26;;;;;;;3.53;2.50;;;;;14.80;101366.00;;;;10037011;29;20189;-78
2022/05/26 00:15:30;;;;;;;5.10;2.90;;;;;14.70;101378.00;;;;10053038;29;20197;-78
2022/05/26 00:20:33;;;;;;;5.47;2.30;;;;;14.60;101371.00;;;;9999117;29;20720;-78
2022/05/26 00:25:35;;;;;;;5.83;2.93;;;;;14.60;101375.00;;;;10012648;29;20214;-78
2022/05/26 00:30:39;;;;;;;7.10;3.80;;;;;14.50;101377.00;;;;10019412;29;20205;-78
2022/05/26 00:35:41;;;;;;;10.07;3.27;;;;;14.50;101382.00;;;;10015118;29;20229;-78
2022/05/26 00:40:45;;;;;;;8.93;3.43;;;;;14.50;101376.00;;;;9998936;29;20556;-78
2022/05/26 00:46:00;;;;;;;8.90;3.60;;;;;14.50;101376.00;;;;9997901;29;20740;-78
2022/05/26 00:51:03;;;;;;;13.10;3.83;;;;;14.40;101373.00;;;;10032804;29;20197;-78
2022/05/26 00:56:15;;;;;;;12.83;4.57;;;;;14.30;101378.00;;;;10035725;29;20226;-78
2022/05/26 01:01:18;;;;;;;9.57;4.87;;;;;14.20;101376.00;;;;10033802;29;20687;-77
2022/05/26 01:06:26;;;;;;;17.90;6.63;;;;;14.10;101382.00;;;;9995144;29;20700;-77
2022/05/26 01:11:33;;;;;;;11.07;5.27;;;;;14.00;101372.00;;;;10032080;29;20193;-77
2022/05/26 01:17:25;;;;;;;12.17;5.50;;;;;14.00;101382.00;;;;10016544;29;20185;-77
2022/05/26 01:22:39;;;;;;;9.03;5.33;;;;;14.10;101385.00;;;;9972757;29;20212;-77
2022/05/26 01:27:44;;;;;;;15.43;5.63;;;;;14.10;101390.00;;;;10014907;29;20235;-78
2022/05/26 01:33:01;;;;;;;13.60;5.37;;;;;14.10;101383.00;;;;10000272;29;20213;-77
2022/05/26 01:38:17;;;;;;;10.83;5.43;;;;;14.10;101391.00;;;;10030291;29;20292;-77
2022/05/26 01:43:45;;;;;;;15.07;5.43;;;;;14.10;101398.00;;;;10045691;29;20197;-76
2022/05/26 01:49:09;;;;;;;12.47;5.43;;;;;14.10;101408.00;;;;10045182;29;20304;-78
2022/05/26 01:54:17;;;;;;;13.50;5.60;;;;;14.20;101405.00;;;;10046592;29;20211;-77
2022/05/26 01:59:35;;;;;;;16.67;6.30;;;;;14.30;101412.00;;;;10029996;29;20193;-76
2022/05/26 02:04:44;;;;;;;13.53;5.93;;;;;14.40;101418.00;;;;10014405;29;20233;-77
2022/05/26 02:09:47;;;;;;;18.60;5.73;;;;;14.40;101416.00;;;;10014252;29;20225;-77
2022/05/26 02:14:59;;;;;;;21.60;6.27;;;;;14.50;101427.00;;;;10015002;29;20207;-77
2022/05/26 02:20:08;;;;;;;13.27;5.37;;;;;14.50;101427.00;;;;10029355;29;20201;-77
2022/05/26 02:25:16;;;;;;;13.60;5.40;;;;;14.50;101432.00;;;;10007032;29;20272;-78
2022/05/26 02:30:18;;;;;;;17.90;5.97;;;;;14.40;101441.00;;;;10000177;29;20730;-77
2022/05/26 02:35:24;;;;;;;14.73;5.57;;;;;14.40;101445.00;;;;10025986;29;20327;-77
2022/05/26 02:40:26;;;;;;;14.40;5.57;;;;;14.40;101453.00;;;;10030060;29;20197;-76
2022/05/26 02:45:48;;;;;;;14.43;5.73;;;;;14.40;101450.00;;;;10030144;29;20216;-78
2022/05/26 02:51:05;;;;;;;20.73;6.13;;;;;14.40;101451.00;;;;9992131;29;20566;-77
2022/05/26 02:56:24;;;;;;;18.77;6.43;;;;;14.40;101457.00;;;;9991703;29;20273;-77
2022/05/26 03:01:36;;;;;;;21.17;5.90;;;;;14.30;101453.00;;;;10024507;29;20193;-77
2022/05/26 03:06:50;;;;;;;14.70;6.07;;;;;14.30;101446.00;;;;10029656;29;20217;-77
2022/05/26 03:11:57;;;;;;;15.70;5.87;;;;;14.30;101456.00;;;;10005750;29;20228;-80
2022/05/26 03:16:59;;;;;;;18.47;5.57;;;;;14.30;101453.00;;;;9990593;29;20193;-79
2022/05/26 03:22:02;;;;;;;19.23;5.70;;;;;14.30;101460.00;;;;10004418;29;20205;-79
2022/05/26 03:27:04;;;;;;;21.60;5.13;;;;;14.30;101471.00;;;;9990162;29;20225;-78
2022/05/26 03:32:07;;;;;;;18.60;5.80;;;;;14.30;101471.00;;;;10030081;29;20665;-79
2022/05/26 03:42:30;;;;;;;23.50;5.60;;;;;14.40;101479.00;;;;10017670;29;20565;-79
2022/05/26 03:47:33;;;;;;;13.97;4.57;;;;;14.30;101485.00;;;;10035090;29;20265;-79
2022/05/26 03:52:35;;;;;;;19.67;5.37;;;;;14.30;101475.00;;;;10032088;29;20209;-78
2022/05/26 03:57:37;;;;;;;16.27;4.47;;;;;14.30;101482.00;;;;10034066;29;20645;-78
2022/05/26 04:02:39;;;;;;;17.07;5.00;;;;;14.20;101496.00;;;;10034345;29;20248;-79
2022/05/26 04:07:41;;;;;;;18.27;4.70;;;;;14.20;101486.00;;;;10019592;29;20266;-78
2022/05/26 04:12:43;;;;;;;22.67;6.17;;;;;14.30;101494.00;;;;10033394;29;20189;-79
2022/05/26 04:17:45;;;;;;;20.70;5.47;;;;;14.30;101504.00;;;;10006628;29;20235;-79
2022/05/26 04:22:47;;;;;;;13.70;5.10;;;;;14.50;101503.00;;;;9971784;29;20206;-79
2022/05/26 04:27:49;;;;;;;26.43;5.23;;;;;14.50;101502.00;;;;10011264;29;20213;-80
2022/05/26 04:32:51;;;;;;;21.63;5.17;;;;;14.60;101515.00;;;;10028500;29;20292;-79
2022/05/26 04:37:53;;;;;;;17.03;6.10;;;;;14.70;101522.00;;;;10047698;29;20208;-79
2022/05/26 04:42:55;;;;;;;20.23;5.67;;;;;14.70;101528.00;;;;10001957;29;20601;-79
2022/05/26 04:47:58;;;;;;;16.60;6.37;;;;;14.80;101526.00;;;;10003291;29;20278;-79
2022/05/26 04:53:00;;;;;;;22.40;6.10;;;;;15.10;101531.00;;;;10032957;29;20205;-78
2022/05/26 04:58:02;;;;;;;16.80;6.07;;;;;15.00;101539.00;;;;10017770;29;20254;-78
2022/05/26 05:03:04;;;;;;;25.23;7.50;;;;;15.00;101538.00;;;;10064010;29;20312;-79
2022/05/26 05:08:06;;;;;;;13.97;6.27;;;;;15.30;101544.00;;;;10018436;29;20213;-78
2022/05/26 05:13:09;;;;;;;25.27;7.47;;;;;15.50;101549.00;;;;10018748;29;20196;-79
2022/05/26 05:18:11;;;;;;;12.97;5.63;;;;;15.60;101562.00;;;;10037696;29;20650;-79
2022/05/26 05:23:13;;;;;;;20.63;6.80;;;;;15.50;101560.00;;;;9995687;29;20220;-79
2022/05/26 05:28:25;;;;;;;25.10;7.43;;;;;15.80;101565.00;;;;10019833;29;20254;-79
2022/05/26 05:33:33;;;;;;;15.50;7.17;;;;;15.90;101565.00;;;;10070305;29;20283;-78
2022/05/26 05:38:40;;;;;;;15.20;7.40;;;;;15.80;101578.00;;;;9995250;29;20205;-79
2022/05/26 05:43:42;;;;;;;16.80;7.37;;;;;15.80;101580.00;;;;9988188;29;20676;-79
2022/05/26 05:48:44;;;;;;;22.73;7.60;;;;;15.80;101581.00;;;;10031541;29;20589;-79
2022/05/26 05:53:46;;;;;;;20.40;7.97;;;;;16.30;101587.00;;;;10015711;29;20228;-79
2022/05/26 05:58:48;;;;;;;19.87;7.67;;;;;16.40;101582.00;;;;10001810;29;20301;-79
2022/05/26 06:03:51;;;;;;;18.67;8.27;;;;;16.40;101583.00;;;;10018206;29;20688;-79
2022/05/26 06:08:53;;;;;;;19.57;7.90;;;;;16.60;101598.00;;;;10047161;29;20273;-79
2022/05/26 06:13:55;;;;;;;19.70;9.10;;;;;16.80;101593.00;;;;10015511;29;20197;-79
2022/05/26 06:18:57;;;;;;;17.00;7.37;;;;;16.70;101608.00;;;;10018113;29;20657;-79
2022/05/26 06:23:59;;;;;;;18.60;7.50;;;;;16.70;101608.00;;;;10015862;29;20205;-79
2022/05/26 06:39:43;;;;;;;15.53;7.97;;;;;17.40;101625.00;;;;10030104;29;20265;-79
2022/05/26 06:44:45;;;;;;;14.70;7.93;;;;;17.40;101630.00;;;;10011648;29;20242;-79
2022/05/26 06:49:48;;;;;;;16.63;7.68;;;;;17.60;101643.00;;;;10012409;29;20213;-78
2022/05/26 06:54:51;;;;;;;17.00;8.05;;;;;17.90;101647.00;;;;10039674;29;20204;-79
2022/05/26 06:59:53;;;;;;;13.95;6.90;;;;;18.50;101646.00;;;;10013946;29;20561;-78
2022/05/26 07:04:55;;;;;;;19.92;7.70;;;;;19.50;101661.00;;;;10029307;29;20250;-79
2022/05/26 07:09:57;;;;;;;15.70;6.60;;;;;19.70;101661.00;;;;10016721;29;20276;-78
2022/05/26 07:15:04;;;;;;;12.73;6.25;;;;;20.30;101655.00;;;;10009454;29;20197;-80
2022/05/26 07:20:07;;;;;;;16.58;6.55;;;;;20.20;101636.00;;;;10013389;29;20197;-79
2022/05/26 07:25:10;;;;;;;13.95;5.47;;;;;21.00;101655.00;;;;10033417;29;20233;-79
2022/05/26 07:30:12;;;;;;;14.68;5.45;;;;;20.80;101651.00;;;;10017041;29;20284;-79
2022/05/26 07:35:14;;;;;;;13.48;4.38;;;;;21.90;101654.00;;;;10034796;29;20227;-80
2022/05/26 07:45:37;;;;;;;12.20;3.78;;;;;23.00;101676.00;;;;10036299;29;20204;-80
2022/05/26 07:50:38;;;;;;;14.05;4.85;;;;;22.00;101672.00;;;;10005651;29;20226;-78
2022/05/26 07:55:42;;;;;;;12.38;4.03;;;;;21.50;101670.00;;;;10010204;29;20216;-79
2022/05/26 08:00:44;;;;;;;11.35;4.60;;;;;20.90;101675.00;;;;10026846;29;20248;-78
2022/05/26 08:05:47;;;;;;;15.23;4.45;;;;;21.10;101682.00;;;;10016831;29;20245;-78
2022/05/26 08:10:49;;;;;;;12.95;4.78;;;;;21.50;101677.00;;;;9971579;29;20225;-79
2022/05/26 08:15:51;;;;;;;16.67;5.07;;;;;23.30;101680.00;;;;10023702;29;20200;-79
2022/05/26 08:20:53;;;;;;;8.93;3.90;;;;;23.10;101686.00;;;;10043229;29;20204;-79
2022/05/26 08:25:55;;;;;;;8.57;3.90;;;;;23.40;101682.00;;;;10040998;29;20216;-79
2022/05/26 08:30:59;;;;;;;12.45;3.88;;;;;24.20;101688.00;;;;10059346;29;20280;-79
2022/05/26 08:36:24;;;;;;;7.55;3.35;;;;;24.20;101689.00;;;;10024115;29;20197;-79
2022/05/26 08:41:36;;;;;;;12.10;4.13;;;;;23.70;101699.00;;;;10023241;29;20222;-80
2022/05/26 08:46:45;;;;;;;11.63;3.42;;;;;22.20;101719.00;;;;10024203;29;20214;-80
2022/05/26 08:52:19;;;;;;;9.70;3.85;;;;;24.00;101716.00;;;;10002527;29;20194;-80
2022/05/26 08:57:27;;;;;;;11.52;3.60;;;;;24.10;101728.00;;;;9994201;29;20204;-79
2022/05/26 09:02:32;;;;;;;11.77;3.58;;;;;22.80;101734.00;;;;10031240;29;20305;-78
2022/05/26 09:12:59;;;;;;;8.93;2.53;;;;;25.00;101728.00;;;;10017759;29;20185;-79
2022/05/26 09:18:21;;;;;;;10.35;3.00;;;;;25.00;101752.00;;;;10019149;29;20287;-79
2022/05/26 09:23:27;;;;;;;9.65;3.33;;;;;23.20;101759.00;;;;10018925;29;20335;-80
2022/05/26 09:28:48;;;;;;;9.63;3.25;;;;;24.80;101740.00;;;;10015466;29;20212;-81
2022/05/26 09:34:21;;;;;;;10.32;2.70;;;;;25.60;101748.00;;;;10010083;29;20200;-80
2022/05/26 09:39:34;;;;;;;7.15;2.15;;;;;25.70;101742.00;;;;10039078;29;20707;-79
2022/05/26 09:44:48;;;;;;;9.57;2.38;;;;;26.50;101747.00;;;;10024241;29;20209;-80
2022/05/26 09:49:53;;;;;;;7.30;2.67;;;;;27.30;101757.00;;;;10037216;29;20221;-80
2022/05/26 09:55:10;;;;;;;4.50;2.00;;;;;26.90;101754.00;;;;10010956;29;20201;-80
2022/05/26 10:00:34;;;;;;;5.88;1.95;;;;;26.50;101759.00;;;;10021220;29;20249;-81
2022/05/26 10:05:46;;;;;;;8.27;2.30;;;;;25.60;101746.00;;;;10013395;29;20297;-79
2022/05/26 10:11:04;;;;;;;8.30;2.90;;;;;26.50;101750.00;;;;10020196;29;20554;-78
2022/05/26 10:16:11;;;;;;;6.90;2.42;;;;;27.70;101741.00;;;;10040340;29;20215;-80
2022/05/26 10:21:16;;;;;;;7.40;2.47;;;;;28.30;101738.00;;;;10071592;29;20197;-81
2022/05/26 10:26:26;;;;;;;7.60;3.00;;;;;27.60;101746.00;;;;10017522;29;20202;-80
2022/05/26 10:32:10;;;;;;;6.68;2.38;;;;;26.20;101756.00;;;;10041776;29;20211;-79
2022/05/26 10:37:53;;;;;;;4.63;1.77;;;;;26.80;101755.00;;;;9995373;29;20214;-80
2022/05/26 10:43:00;;;;;;;5.72;1.80;;;;;27.00;101752.00;;;;9882365;30;20237;-79
2022/05/26 10:48:29;;;;;;;4.97;2.13;;;;;25.90;101764.00;;;;9988523;29;20217;-80
2022/05/26 10:53:55;;;;;;;5.18;1.55;;;;;26.80;101748.00;;;;9998450;29;20205;-80
2022/05/26 10:59:08;;;;;;;4.70;1.70;;;;;26.90;101749.00;;;;10015054;29;20291;-80
2022/05/26 11:04:20;;;;;;;6.05;2.03;;;;;27.10;101742.00;;;;10008899;29;20237;-80
2022/05/26 11:09:51;;;;;;;7.90;2.80;;;;;28.20;101748.00;;;;10009510;29;20212;-81
2022/05/26 11:20:24;;;;;;;4.22;1.75;;;;;26.80;101747.00;;;;10015821;29;20197;-79
2022/05/26 11:25:31;;;;;;;6.45;2.10;;;;;27.00;101754.00;;;;9998175;29;20229;-80
2022/05/26 11:36:43;;;;;;;8.75;1.98;;;;;27.90;101729.00;;;;10006015;29;20209;-79
2022/05/26 11:41:53;;;;;;;6.32;2.20;;;;;27.60;101742.00;;;;10015899;29;20288;-80
2022/05/26 11:47:12;;;;;;;4.78;2.05;;;;;27.30;101738.00;;;;10006934;29;20229;-80
2022/05/26 11:52:24;;;;;;;4.13;1.60;;;;;28.30;101734.00;;;;10014214;29;20201;-79
2022/05/26 11:57:42;;;;;;;6.05;1.60;;;;;28.00;101732.00;;;;10015366;29;20764;-80
2022/05/26 12:02:46;;;;;;;4.40;1.63;;;;;27.10;101728.00;;;;10017645;29;20229;-79
2022/05/26 12:07:49;;;;;;;3.97;1.50;;;;;27.00;101719.00;;;;10019176;29;20213;-80
2022/05/26 12:13:19;;;;;;;5.47;1.50;;;;;27.20;101711.00;;;;10033557;29;20605;-80
2022/05/26 12:18:37;;;;;;;5.05;1.63;;;;;27.70;101712.00;;;;10070632;29;20244;-80
2022/05/26 12:23:39;;;;;;;8.10;1.75;;;;;27.40;101719.00;;;;10072803;29;20195;-80
2022/05/26 12:28:41;;;;;;;5.10;1.65;;;;;27.70;101694.00;;;;10022352;29;20212;-80
2022/05/26 12:34:03;;;;;;;5.60;1.60;;;;;28.40;101706.00;;;;10007329;29;20197;-80
2022/05/26 12:39:14;;;;;;;5.55;1.38;;;;;27.80;101705.00;;;;9997329;29;20197;-80
2022/05/26 12:44:34;;;;;;;6.15;1.70;;;;;26.30;101696.00;;;;9997545;29;20226;-80
2022/05/26 12:49:55;;;;;;;4.38;1.50;;;;;26.80;101686.00;;;;10005119;29;20227;-79
2022/05/26 12:55:22;;;;;;;5.05;1.45;;;;;26.30;101702.00;;;;10019067;29;20204;-80
2022/05/26 13:00:32;;;;;;;6.93;1.38;;;;;26.90;101697.00;;;;9983516;29;20226;-79
2022/05/26 13:05:38;;;;;;;6.63;1.95;;;;;26.50;101696.00;;;;10017239;29;20233;-80
2022/05/26 13:10:41;;;;;;;4.95;1.52;;;;;26.80;101700.00;;;;10017386;29;20270;-80
2022/05/26 13:15:45;;;;;;;6.15;1.90;;;;;26.30;101690.00;;;;10016924;29;20200;-81
2022/05/26 13:20:47;;;;;;;6.72;1.80;;;;;26.70;101694.00;;;;10031618;29;20715;-80
2022/05/26 13:26:05;;;;;;;4.20;1.42;;;;;26.30;101684.00;;;;10016124;29;20649;-79
2022/05/26 13:36:38;;;;;;;7.78;1.83;;;;;26.30;101687.00;;;;10015362;29;20231;-79
2022/05/26 13:41:45;;;;;;;7.25;2.03;;;;;26.20;101686.00;;;;10016330;29;20193;-79
2022/05/26 13:46:50;;;;;;;5.88;1.63;;;;;25.70;101684.00;;;;10029463;29;20205;-79
2022/05/26 13:51:53;;;;;;;6.57;1.73;;;;;26.10;101689.00;;;;10031106;29;20197;-80
2022/05/26 13:57:00;;;;;;;4.32;1.30;;;;;24.80;101688.00;;;;10031724;29;20311;-78
2022/05/26 14:02:11;;;;;;;7.47;2.35;;;;;24.50;101690.00;;;;10017095;29;20277;-80
2022/05/26 14:07:36;;;;;;;4.68;1.63;;;;;24.20;101686.00;;;;10029973;29;20213;-79
2022/05/26 14:12:38;;;;;;;7.57;1.90;;;;;24.50;101678.00;;;;10014488;29;20205;-80
2022/05/26 14:17:42;;;;;;;3.22;1.30;;;;;24.90;101663.00;;;;9981691;29;20204;-79
2022/05/26 14:22:53;;;;;;;5.28;1.25;;;;;24.50;101676.00;;;;10008976;29;20204;-79
2022/05/26 14:28:01;;;;;;;4.43;1.45;;;;;24.80;101668.00;;;;9976513;29;20224;-78
2022/05/26 14:33:21;;;;;;;6.30;1.25;;;;;24.90;101664.00;;;;9990433;29;20229;-79
2022/05/26 14:38:24;;;;;;;6.82;1.65;;;;;24.10;101677.00;;;;10007059;29;20193;-79
2022/05/26 14:43:34;;;;;;;6.38;1.40;;;;;23.30;101670.00;;;;9991866;29;20225;-79
2022/05/26 14:48:36;;;;;;;5.78;1.60;;;;;23.50;101661.00;;;;10024903;29;20245;-79
2022/05/26 14:58:59;;;;;;;4.35;1.40;;;;;24.70;101655.00;;;;10013764;29;20260;-79
2022/05/26 15:04:01;;;;;;;4.55;1.55;;;;;24.70;101646.00;;;;10012270;29;20224;-79
2022/05/26 15:09:02;;;;;;;3.67;1.40;;;;;24.90;101648.00;;;;10029472;29;20624;-79
2022/05/26 15:14:04;;;;;;;4.32;1.77;;;;;24.50;101649.00;;;;10033254;29;20233;-79
2022/05/26 15:19:09;;;;;;;6.63;1.83;;;;;24.70;101637.00;;;;10023650;29;20257;-79
2022/05/26 15:24:10;;;;;;;6.10;1.92;;;;;25.00;101646.00;;;;10012549;29;20341;-79
2022/05/26 15:29:13;;;;;;;8.02;2.13;;;;;25.10;101639.00;;;;10019554;29;20292;-78
2022/05/26 15:34:15;;;;;;;5.85;1.50;;;;;25.90;101654.00;;;;10004631;29;20257;-78
2022/05/26 15:39:17;;;;;;;4.60;1.40;;;;;25.50;101644.00;;;;10018450;29;20684;-79
2022/05/26 15:44:21;;;;;;;4.53;1.90;;;;;24.80;101651.00;;;;9983738;29;20209;-78
2022/05/26 15:49:24;;;;;;;7.63;1.92;;;;;24.00;101655.00;;;;10028127;29;20296;-79
2022/05/26 15:54:27;;;;;;;8.93;1.88;;;;;23.30;101658.00;;;;10019941;29;20204;-79
2022/05/26 15:59:30;;;;;;;7.63;1.80;;;;;22.80;101657.00;;;;10004066;29;20193;-79
2022/05/26 16:04:32;;;;;;;6.18;1.52;;;;;23.30;101651.00;;;;10033394;29;20229;-79
2022/05/26 16:09:34;;;;;;;5.43;1.17;;;;;23.60;101658.00;;;;10034262;29;20220;-79
2022/05/26 16:14:36;;;;;;;6.15;1.40;;;;;24.00;101647.00;;;;10034060;29;20725;-79
2022/05/26 16:19:38;;;;;;;5.10;1.10;;;;;23.60;101651.00;;;;10034175;29;20208;-78
2022/05/26 16:24:40;;;;;;;5.85;1.58;;;;;23.00;101648.00;;;;10034433;29;20197;-78
2022/05/26 16:29:42;;;;;;;2.55;0.93;;;;;22.90;101641.00;;;;10043424;29;20209;-79
2022/05/26 16:34:44;;;;;;;4.97;1.20;;;;;22.90;101627.00;;;;10031931;29;20197;-79
2022/05/26 16:39:46;;;;;;;4.18;1.25;;;;;22.60;101622.00;;;;9997657;29;20189;-78
2022/05/26 16:44:48;;;;;;;4.25;1.63;;;;;22.30;101628.00;;;;10022606;29;20230;-78
2022/05/26 16:49:50;;;;;;;4.38;1.48;;;;;22.30;101625.00;;;;10033297;29;20213;-78
2022/05/26 16:54:52;;;;;;;5.70;1.88;;;;;22.20;101629.00;;;;10018958;29;20250;-79
2022/05/26 16:59:55;;;;;;;3.90;1.73;;;;;22.10;101630.00;;;;10033030;29;20193;-79
2022/05/26 17:04:57;;;;;;;8.32;1.90;;;;;21.70;101653.00;;;;10031815;29;20284;-78
2022/05/26 17:10:00;;;;;;;5.55;2.22;;;;;21.50;101646.00;;;;10033199;29;20217;-79
2022/05/26 17:26:02;;;;;;;6.25;1.75;;;;;21.50;101639.00;;;;9979983;29;20227;-79
2022/05/26 17:31:04;;;;;;;3.65;1.50;;;;;21.10;101633.00;;;;10040268;29;20296;-79
2022/05/26 17:36:08;;;;;;;7.20;1.73;;;;;20.80;101637.00;;;;10032453;29;20201;-79
2022/05/26 17:41:18;;;;;;;3.35;1.15;;;;;20.40;101642.00;;;;10017274;29;20207;-79
2022/05/26 17:46:20;;;;;;;4.60;1.00;;;;;20.00;101655.00;;;;10016596;29;20243;-79
2022/05/26 17:51:24;;;;;;;2.92;1.10;;;;;19.70;101649.00;;;;10016788;29;20239;-79
2022/05/26 17:56:26;;;;;;;2.85;1.27;;;;;19.50;101665.00;;;;10017859;29;20576;-80
2022/05/26 18:01:28;;;;;;;5.55;1.10;;;;;19.20;101686.00;;;;10010221;29;20637;-78
2022/05/26 18:06:31;;;;;;;1.98;0.65;;;;;19.00;101688.00;;;;10016273;29;20269;-78
2022/05/26 18:11:33;;;;;;;2.17;1.08;;;;;18.80;101682.00;;;;10015551;29;20756;-78
2022/05/26 18:16:35;;;;;;;1.00;0.70;;;;;18.50;101686.00;;;;9992001;29;20201;-79
2022/05/26 18:21:39;;;;;;;2.20;0.80;;;;;18.30;101696.00;;;;10004780;29;20546;-78
2022/05/26 18:26:41;;;;;;;1.95;0.80;;;;;18.20;101696.00;;;;10037277;29;20700;-79
2022/05/26 18:31:48;;;;;;;2.22;0.88;;;;;18.00;101692.00;;;;9981869;29;20282;-78
2022/05/26 18:36:52;;;;;;;0.60;0.60;;;;;17.80;101692.00;;;;9992474;29;20254;-78
2022/05/26 18:41:54;;;;;;;0.77;0.68;;;;;17.50;101700.00;;;;9976605;29;20235;-78
2022/05/26 18:46:57;;;;;;;3.90;0.98;;;;;17.40;101705.00;;;;10008873;29;20653;-78
2022/05/26 18:51:59;;;;;;;2.45;1.00;;;;;17.30;101697.00;;;;10014982;29;20332;-78
2022/05/26 18:57:01;;;;;;;3.10;0.85;;;;;17.20;101694.00;;;;10044212;29;20209;-79
2022/05/26 19:02:03;;;;;;;3.95;1.10;;;;;17.10;101706.00;;;;9997742;29;20231;-79
2022/05/26 19:07:06;;;;;;;2.35;1.00;;;;;17.00;101709.00;;;;10019074;29;20201;-79
2022/05/26 19:12:09;;;;;;;1.35;0.80;;;;;16.90;101703.00;;;;10021190;29;20261;-78
2022/05/26 19:17:17;;;;;;;1.40;0.90;;;;;16.80;101719.00;;;;10081108;29;20200;-79
2022/05/26 19:22:19;;;;;;;0.73;0.60;;;;;16.70;101714.00;;;;10075185;29;20207;-79
2022/05/26 19:27:23;;;;;;;1.75;0.73;;;;;16.70;101719.00;;;;10029555;29;20193;-79
2022/05/26 19:32:25;;;;;;;1.98;0.80;;;;;16.60;101706.00;;;;10024909;29;20212;-78
2022/05/26 19:37:28;;;;;;;4.50;1.10;;;;;16.50;101700.00;;;;10014580;29;20205;-78
2022/05/26 19:42:33;;;;;;;1.48;0.90;;;;;16.40;101707.00;;;;10037260;29;20212;-79
2022/05/26 19:47:37;;;;;;;1.77;0.90;;;;;16.40;101714.00;;;;10021304;29;20312;-78
2022/05/26 19:52:42;;;;;;;6.15;1.00;;;;;16.40;101720.00;;;;10022499;29;20201;-78
2022/05/26 19:57:44;;;;;;;3.08;1.05;;;;;16.30;101722.00;;;;10028297;29;20201;-78
2022/05/26 20:02:46;;;;;;;1.93;0.90;;;;;16.30;101726.00;;;;10019975;29;20289;-79
2022/05/26 20:07:49;;;;;;;3.60;1.20;;;;;16.20;101741.00;;;;10021519;29;20204;-77
2022/05/26 20:12:53;;;;;;;1.97;1.13;;;;;16.10;101742.00;;;;10005538;29;20204;-78
2022/05/26 20:17:58;;;;;;;3.13;1.27;;;;;16.10;101744.00;;;;10069694;29;20244;-78
2022/05/26 20:23:01;;;;;;;3.57;0.90;;;;;16.00;101752.00;;;;10028998;29;20209;-82
2022/05/26 20:33:25;;;;;;;5.17;1.57;;;;;16.00;101761.00;;;;10006134;29;20201;-78
2022/05/26 20:38:30;;;;;;;5.97;1.50;;;;;15.90;101765.00;;;;9998829;29;20204;-79
2022/05/26 20:43:34;;;;;;;4.13;1.30;;;;;15.90;101759.00;;;;10016045;29;20233;-78
2022/05/26 20:48:41;;;;;;;6.80;1.40;;;;;15.80;101765.00;;;;10034684;29;20224;-78
2022/05/26 20:53:45;;;;;;;4.13;1.50;;;;;15.80;101769.00;;;;10005490;29;20211;-79
2022/05/26 20:58:47;;;;;;;4.90;1.40;;;;;15.80;101762.00;;;;10033442;29;20249;-78
2022/05/26 21:03:49;;;;;;;4.77;1.80;;;;;15.70;101759.00;;;;10017794;29;20327;-79
2022/05/26 21:08:51;;;;;;;2.70;1.27;;;;;15.70;101759.00;;;;10019925;29;20224;-78
2022/05/26 21:13:53;;;;;;;1.73;0.80;;;;;15.70;101758.00;;;;10035390;29;20185;-79
2022/05/26 21:18:57;;;;;;;1.83;1.43;;;;;15.70;101758.00;;;;10032812;29;20193;-78
2022/05/26 21:23:59;;;;;;;3.40;1.57;;;;;15.70;101747.00;;;;10034215;29;20238;-79
2022/05/26 21:29:01;;;;;;;8.43;1.50;;;;;15.70;101747.00;;;;10014052;29;20217;-79
2022/05/26 21:34:02;;;;;;;4.27;1.50;;;;;15.60;101752.00;;;;10015333;29;20201;-78
2022/05/26 21:39:04;;;;;;;4.03;1.50;;;;;15.60;101751.00;;;;10018154;29;20196;-78
2022/05/26 21:44:07;;;;;;;6.03;2.30;;;;;15.50;101749.00;;;;10003028;29;20614;-79
2022/05/26 21:49:10;;;;;;;7.47;2.00;;;;;15.50;101737.00;;;;9978221;29;20269;-79
2022/05/26 21:54:16;;;;;;;2.93;1.80;;;;;15.50;101746.00;;;;10033620;29;20214;-78
2022/05/26 21:59:18;;;;;;;4.47;1.70;;;;;15.50;101747.00;;;;10010587;29;20304;-79
2022/05/26 22:04:24;;;;;;;4.23;1.60;;;;;15.40;101735.00;;;;9984781;29;20241;-79
2022/05/26 22:14:46;;;;;;;4.63;1.43;;;;;15.40;101734.00;;;;10015387;29;20231;-79
2022/05/26 22:19:48;;;;;;;5.13;2.07;;;;;15.30;101722.00;;;;10070403;29;20200;-79
2022/05/26 22:24:52;;;;;;;3.80;1.60;;;;;15.30;101725.00;;;;10069572;29;20252;-79
2022/05/26 22:29:57;;;;;;;5.57;1.40;;;;;15.20;101724.00;;;;10041637;29;20576;-79
2022/05/26 22:40:24;;;;;;;4.57;1.40;;;;;15.20;101724.00;;;;10046045;29;20197;-78
2022/05/26 22:45:32;;;;;;;4.53;1.70;;;;;15.20;101719.00;;;;10031102;29;20205;-78
2022/05/26 22:50:36;;;;;;;5.23;1.67;;;;;15.10;101709.00;;;;10021208;29;20273;-80
2022/05/26 22:55:40;;;;;;;4.00;1.30;;;;;15.10;101714.00;;;;9992944;29;20229;-78
2022/05/26 23:00:45;;;;;;;6.27;1.40;;;;;15.20;101708.00;;;;10030102;29;20197;-78
2022/05/26 23:05:47;;;;;;;4.07;1.63;;;;;15.20;101717.00;;;;9993423;29;20233;-78
2022/05/26 23:10:50;;;;;;;4.40;1.50;;;;;15.10;101710.00;;;;9994393;29;20213;-78
2022/05/26 23:15:52;;;;;;;4.93;1.40;;;;;15.10;101704.00;;;;10039250;29;20201;-78
2022/05/26 23:20:54;;;;;;;3.57;1.30;;;;;15.10;101703.00;;;;10067117;29;20200;-78
2022/05/26 23:25:56;;;;;;;3.63;1.50;;;;;15.10;101709.00;;;;9994157;29;20262;-78
2022/05/26 23:30:58;;;;;;;3.00;1.33;;;;;15.10;101715.00;;;;10010417;29;20212;-79
2022/05/26 23:36:00;;;;;;;6.37;1.47;;;;;15.10;101701.00;;;;10014725;29;20208;-77
2022/05/26 23:46:23;;;;;;;3.37;1.63;;;;;15.10;101708.00;;;;10030318;29;20217;-78
2022/05/26 23:51:25;;;;;;;4.47;1.67;;;;;15.10;101704.00;;;;10031797;29;20220;-79
